Погода Эстасьон-Коауилана 2 недели

Нижняя Калифорния, Мексика

13 - 25 июля
  • 13июля
    Сегодня
    +27°
    +42°
    Ясно и безоблачно
    ВремяПогодаТемператураВлажностьДавлениеВетер, м/сВероятность осадков
    02:00Ясно и безоблачно+30°C53 %754 мм3.6 м/с1 %
    05:00Ясно и безоблачно+29°C63 %755 мм4.0 м/с1 %
    08:00Ясно и безоблачно+31°C57 %756 мм4.5 м/с1 %
    11:00Ясно и безоблачно+37°C30 %757 мм6.6 м/с1 %
    14:00Ясно и безоблачно+41°C22 %756 мм6.6 м/с1 %
    17:00Ясно и безоблачно+40°C22 %755 мм5.3 м/с1 %
    20:00Ясно и безоблачно+33°C34 %756 мм5.1 м/с1 %
    23:00Ясно и безоблачно+29°C63 %757 мм3.4 м/с1 %
  • 14июля
    Воскресенье
    +28°
    +42°
    Ясно и безоблачно
    ВремяПогодаТемператураВлажностьДавлениеВетер, м/сВероятность осадков
    02:00Ясно и безоблачно+30°C71 %756 мм4.6 м/с1 %
    05:00Ясно и безоблачно+29°C72 %757 мм3.7 м/с1 %
    08:00Ясно и безоблачно+30°C59 %758 мм3.7 м/с1 %
    11:00Ясно и безоблачно+36°C34 %758 мм5.2 м/с1 %
    14:00Ясно и безоблачно+41°C23 %757 мм4.6 м/с2 %
    17:00Практически безоблачно+41°C24 %755 мм2.6 м/с2 %
    20:00Ясно и безоблачно+35°C20 %756 мм6.2 м/с2 %
    23:00Ясно и безоблачно+30°C53 %757 мм4.2 м/с2 %
  • 15июля
    Понедельник
    +28°
    +43°
    Ясно и безоблачно
    ВремяПогодаТемператураВлажностьДавлениеВетер, м/сВероятность осадков
    02:00Ясно и безоблачно+31°C60 %756 мм3.4 м/с2 %
    05:00Ясно и безоблачно+29°C63 %756 мм3.2 м/с2 %
    08:00Ясно и безоблачно+31°C51 %757 мм2.8 м/с2 %
    11:00Ясно и безоблачно+37°C26 %757 мм4.3 м/с2 %
    14:00Ясно и безоблачно+42°C18 %755 мм4.0 м/с2 %
    17:00Практически безоблачно+43°C18 %753 мм3.5 м/с2 %
    20:00Ясно и безоблачно+37°C26 %754 мм6.0 м/с2 %
    23:00Ясно и безоблачно+30°C47 %755 мм4.7 м/с2 %
  • 16июля
    Вторник
    +28°
    +44°
    Ясно и безоблачно
    ВремяПогодаТемператураВлажностьДавлениеВетер, м/сВероятность осадков
    02:00Ясно и безоблачно+31°C51 %754 мм3.9 м/с2 %
    05:00Ясно и безоблачно+29°C53 %754 мм1.6 м/с2 %
    08:00Практически безоблачно+31°C51 %756 мм2.6 м/с2 %
    11:00Ясно и безоблачно+38°C30 %756 мм2.4 м/с2 %
    14:00Ясно и безоблачно+42°C22 %755 мм2.9 м/с2 %
    17:00Небольшая облачность+43°C20 %753 мм4.6 м/с2 %
    20:00Практически безоблачно+34°C34 %753 мм4.9 м/с2 %
    23:00Ясно и безоблачно+30°C49 %754 мм4.2 м/с2 %
Мы используем cookies
Соглашаюсь